Time;durP1;ratioP1;P1;durP2;ratioP2;P2;SDS_P1;SDS_P2;PMS_P1;PMS_P2;Temp;Humidity;BMP_temperature;BMP_pressure;BME280_temperature;BME280_humidity;BME280_pressure;Samples;Min_cycle;Max_cycle;Signal;HPM_P1;HPM_P2
2022/05/17 00:00:35;;;;;;;10.82;3.72;;;;;;;15.91;43.23;100429.09;2100919;84;27719;-76
2022/05/17 00:03:39;;;;;;;8.30;2.92;;;;;;;15.88;43.29;100427.09;2100565;84;28703;-76
2022/05/17 00:06:41;;;;;;;10.43;3.20;;;;;;;15.84;43.49;100426.42;2100535;84;31155;-76
2022/05/17 00:09:44;;;;;;;7.70;3.83;;;;;;;15.81;43.47;100422.58;2100862;84;32994;-76
2022/05/17 00:12:46;;;;;;;13.98;3.62;;;;;;;15.80;43.63;100430.30;2077769;84;29341;-76
2022/05/17 00:15:51;;;;;;;6.62;3.30;;;;;;;15.79;43.62;100427.22;2103189;84;27789;-76
2022/05/17 00:18:53;;;;;;;;;;;;;;;15.77;43.84;100421.05;2103406;84;28816;-75
2022/05/17 00:21:56;;;;;;;10.60;2.90;;;;;;;15.75;43.73;100421.17;2100811;84;31035;-76
2022/05/17 00:24:58;;;;;;;6.58;2.77;;;;;;;15.71;44.03;100416.95;2100959;84;32966;-75
2022/05/17 00:28:02;;;;;;;13.83;3.65;;;;;;;15.71;43.81;100414.75;2100949;84;29317;-76
2022/05/17 00:31:10;;;;;;;7.08;2.42;;;;;;;15.71;43.88;100414.75;2101204;84;27757;-76
2022/05/17 00:34:10;;;;;;;7.95;2.75;;;;;;;15.68;43.82;100403.66;2100120;84;28909;-74
2022/05/17 00:37:12;;;;;;;5.62;2.62;;;;;;;15.67;43.89;100405.12;2102920;83;30994;-75
2022/05/17 00:40:15;;;;;;;5.40;2.37;;;;;;;15.65;44.23;100406.56;2102431;84;33011;-75
2022/05/17 00:47:10;;;;;;;7.58;2.47;;;;;;;15.64;44.07;100408.41;2101057;84;27947;-74
2022/05/17 00:50:30;;;;;;;6.78;2.52;;;;;;;15.63;44.21;100407.18;2086597;84;28673;-74
2022/05/17 00:53:34;;;;;;;5.83;2.50;;;;;;;15.59;44.41;100401.11;2102134;83;31076;-75
2022/05/17 00:56:41;;;;;;;6.92;3.77;;;;;;;15.55;44.32;100394.21;2102196;84;33111;-74
2022/05/17 00:59:44;;;;;;;5.83;2.37;;;;;;;15.53;44.35;100386.70;2102731;83;29316;-74
2022/05/17 01:02:57;;;;;;;7.78;2.42;;;;;;;15.50;44.47;100384.20;2077455;84;27842;-72
2022/05/17 01:06:01;;;;;;;8.50;2.72;;;;;;;15.47;44.42;100391.16;2105623;84;29995;-72
2022/05/17 01:09:05;;;;;;;6.17;2.85;;;;;;;15.44;44.67;100395.41;2105842;84;31151;-73
2022/05/17 01:12:09;;;;;;;6.87;2.40;;;;;;;15.41;44.60;100395.16;2105631;84;32982;-73
2022/05/17 01:15:12;;;;;;;4.40;2.27;;;;;;;15.41;44.51;100391.09;2105868;84;29320;-73
2022/05/17 01:18:15;;;;;;;6.05;2.58;;;;;;;15.40;44.65;100391.19;2105547;84;28051;-73
2022/05/17 01:21:17;;;;;;;5.45;2.37;;;;;;;15.34;44.78;100385.73;2105898;84;28655;-73
2022/05/17 01:24:25;;;;;;;5.50;2.70;;;;;;;15.28;44.65;100387.02;2106836;83;31020;-73
2022/05/17 01:27:39;;;;;;;5.40;2.47;;;;;;;15.23;44.85;100383.75;2106039;84;32983;-74
2022/05/17 01:30:41;;;;;;;6.47;2.25;;;;;;;15.19;44.91;100380.41;2105979;84;29328;-74
2022/05/17 01:33:43;;;;;;;5.22;3.12;;;;;;;15.15;45.26;100383.42;2106027;84;27737;-73
2022/05/17 01:36:47;;;;;;;5.70;2.75;;;;;;;15.10;45.20;100377.00;2105666;84;28695;-72
2022/05/17 01:39:50;;;;;;;6.97;2.70;;;;;;;15.07;45.31;100380.36;2105929;83;31082;-72
2022/05/17 01:42:55;;;;;;;7.87;2.47;;;;;;;15.02;45.49;100376.63;2105452;84;33042;-76
2022/05/17 01:46:08;;;;;;;6.37;2.33;;;;;;;14.96;45.43;100377.06;2075838;84;29403;-75
2022/05/17 01:49:12;;;;;;;7.85;2.60;;;;;;;14.88;45.43;100374.38;2105556;84;27935;-74
2022/05/17 01:52:15;;;;;;;7.65;2.58;;;;;;;14.83;45.60;100371.12;2105514;84;28717;-74
2022/05/17 01:55:18;;;;;;;5.33;2.67;;;;;;;14.79;45.74;100371.43;2104627;84;31076;-75
2022/05/17 01:58:22;;;;;;;8.15;2.75;;;;;;;14.74;45.70;100365.00;2103707;83;32973;-73
2022/05/17 02:01:24;;;;;;;3.87;1.98;;;;;;;14.71;45.84;100376.86;2102508;84;29443;-73
2022/05/17 02:04:27;;;;;;;9.50;2.90;;;;;;;14.66;45.86;100372.22;2102643;84;27628;-73
2022/05/17 02:07:30;;;;;;;6.80;2.67;;;;;;;14.62;46.12;100381.47;2102551;84;28637;-74
2022/05/17 02:10:34;;;;;;;4.65;2.60;;;;;;;14.55;46.60;100372.91;2102641;84;31111;-74
2022/05/17 02:13:41;;;;;;;7.17;2.47;;;;;;;14.49;46.34;100369.76;2102565;84;32984;-75
2022/05/17 02:16:44;;;;;;;10.93;2.85;;;;;;;14.43;46.65;100359.75;2102577;84;29373;-73
2022/05/17 02:19:46;;;;;;;5.75;2.40;;;;;;;14.37;46.66;100356.13;2102651;84;27564;-73
2022/05/17 02:22:50;;;;;;;6.40;2.30;;;;;;;14.31;46.81;100348.42;2102572;84;28627;-74
2022/05/17 02:25:54;;;;;;;8.68;2.62;;;;;;;14.26;47.12;100343.80;2102834;84;31100;-73
2022/05/17 02:28:57;;;;;;;6.15;2.40;;;;;;;14.22;47.25;100340.94;2101006;84;32965;-74
2022/05/17 02:32:01;;;;;;;5.92;2.77;;;;;;;14.19;47.35;100342.48;2100914;84;29331;-74
2022/05/17 02:35:07;;;;;;;4.95;2.80;;;;;;;14.18;47.73;100342.09;2101574;84;27666;-74
2022/05/17 02:38:11;;;;;;;5.97;2.80;;;;;;;14.16;47.49;100339.98;2103456;84;28634;-74
2022/05/17 02:41:17;;;;;;;8.40;3.22;;;;;;;14.15;47.84;100345.83;2103231;84;31082;-73
2022/05/17 02:44:19;;;;;;;5.80;2.60;;;;;;;14.17;47.69;100351.14;2103088;84;33198;-73
2022/05/17 02:47:22;;;;;;;6.80;2.37;;;;;;;14.19;47.63;100347.88;2103357;84;29367;-73
2022/05/17 02:50:26;;;;;;;10.25;2.75;;;;;;;14.21;47.81;100351.34;2079363;84;27864;-74
2022/05/17 02:53:29;;;;;;;8.15;2.70;;;;;;;14.21;47.83;100352.69;2079328;84;28671;-73
2022/05/17 02:56:33;;;;;;;5.62;2.85;;;;;;;14.20;47.97;100361.23;2079535;84;31068;-73
2022/05/17 02:59:37;;;;;;;7.83;2.77;;;;;;;14.22;48.14;100363.84;2077790;84;32980;-73
2022/05/17 03:02:41;;;;;;;5.95;2.72;;;;;;;14.21;48.30;100361.62;2102952;84;29353;-73
2022/05/17 03:05:45;;;;;;;8.10;2.83;;;;;;;14.20;48.16;100362.58;2079587;84;27884;-73
2022/05/17 03:08:49;;;;;;;5.73;2.60;;;;;;;14.19;48.47;100359.50;2103537;84;28677;-73
2022/05/17 03:11:52;;;;;;;6.67;3.02;;;;;;;14.18;48.65;100364.50;2102465;84;31075;-73
2022/05/17 03:14:55;;;;;;;10.20;3.12;;;;;;;14.18;48.49;100364.50;2102195;84;33080;-74
2022/05/17 03:17:59;;;;;;;7.17;3.35;;;;;;;14.18;48.53;100369.89;2057000;84;29362;-74
2022/05/17 03:21:02;;;;;;;6.10;2.80;;;;;;;14.21;48.35;100375.09;2103643;84;27748;-74
2022/05/17 03:24:06;;;;;;;6.12;3.00;;;;;;;14.23;48.40;100374.52;2103550;84;28654;-73
2022/05/17 03:27:08;;;;;;;8.10;3.47;;;;;;;14.25;48.39;100379.80;2104045;84;31020;-71
2022/05/17 03:30:13;;;;;;;4.55;2.65;;;;;;;14.25;48.58;100375.28;2103499;83;32976;-73
2022/05/17 03:33:16;;;;;;;8.20;3.02;;;;;;;14.29;48.58;100377.30;2102352;83;29448;-73
2022/05/17 03:36:19;;;;;;;6.22;2.70;;;;;;;14.28;48.75;100367.02;2078509;84;27652;-73
2022/05/17 03:39:23;;;;;;;7.53;3.20;;;;;;;14.30;48.50;100366.90;2079103;84;28531;-72
2022/05/17 03:42:26;;;;;;;7.00;3.00;;;;;;;14.35;48.57;100367.48;2103224;84;31121;-73
2022/05/17 03:45:37;;;;;;;12.80;2.52;;;;;;;14.37;48.61;100366.91;2102924;84;33630;-72
2022/05/17 03:48:38;;;;;;;6.30;2.67;;;;;;;14.39;48.55;100374.41;2103447;84;29346;-72
2022/05/17 03:51:42;;;;;;;6.83;3.08;;;;;;;14.42;48.52;100371.48;2103801;84;27603;-72
2022/05/17 03:54:44;;;;;;;4.50;2.37;;;;;;;14.46;48.37;100365.91;2103705;84;28769;-72
2022/05/17 03:57:46;;;;;;;8.03;2.70;;;;;;;14.50;48.70;100364.25;2103675;84;31079;-72
2022/05/17 04:00:48;;;;;;;6.17;3.05;;;;;;;14.55;48.36;100374.27;2104474;83;33138;-72
2022/05/17 04:03:51;;;;;;;7.50;3.22;;;;;;;14.65;48.57;100376.34;2080722;84;29475;-72
2022/05/17 04:06:53;;;;;;;7.53;3.30;;;;;;;14.71;48.33;100377.33;2080663;84;27849;-72
2022/05/17 04:09:55;;;;;;;4.47;2.47;;;;;;;14.79;48.15;100371.43;2108694;84;28519;-72
2022/05/17 04:12:57;;;;;;;7.50;2.75;;;;;;;14.86;48.13;100370.92;2108636;84;31081;-72
2022/05/17 04:16:02;;;;;;;5.87;2.58;;;;;;;14.95;47.98;100367.24;2108621;84;32911;-72
2022/05/17 04:19:05;;;;;;;9.28;2.67;;;;;;;15.04;47.96;100372.00;2108878;84;29319;-72
2022/05/17 04:22:12;;;;;;;4.28;3.08;;;;;;;15.13;47.80;100375.45;2108749;84;27596;-72
2022/05/17 04:25:19;;;;;;;6.10;2.58;;;;;;;15.24;47.68;100372.49;2108374;84;28846;-71
2022/05/17 04:28:21;;;;;;;4.35;2.35;;;;;;;15.32;47.56;100362.91;2108737;84;31043;-71
2022/05/17 04:31:24;;;;;;;4.22;2.42;;;;;;;15.43;47.45;100359.47;2108662;84;32972;-71
2022/05/17 04:34:27;;;;;;;5.40;2.83;;;;;;;15.53;47.37;100365.09;2108699;84;29282;-71
2022/05/17 04:37:30;;;;;;;5.97;2.75;;;;;;;15.59;47.19;100367.84;2108448;84;27897;-72
2022/05/17 04:40:36;;;;;;;6.33;2.95;;;;;;;15.64;47.06;100372.42;2105464;84;28748;-70
2022/05/17 04:43:40;;;;;;;9.63;3.05;;;;;;;15.70;47.04;100378.75;2105525;84;31062;-71
2022/05/17 04:46:43;;;;;;;7.08;2.80;;;;;;;15.78;47.01;100386.32;2105822;84;33065;-71
2022/05/17 04:49:45;;;;;;;8.43;3.25;;;;;;;15.77;46.94;100376.48;2105899;84;29326;-70
2022/05/17 04:52:48;;;;;;;4.83;2.98;;;;;;;15.76;46.81;100379.69;2106047;84;27945;-71
2022/05/17 04:55:51;;;;;;;7.17;3.17;;;;;;;15.78;46.82;100379.56;2105139;84;28723;-73
2022/05/17 04:58:54;;;;;;;7.65;3.22;;;;;;;15.83;46.96;100394.09;2104693;84;31165;-73
2022/05/17 05:01:57;;;;;;;6.95;3.08;;;;;;;15.89;46.89;100391.00;2076349;84;32961;-73
2022/05/17 05:05:00;;;;;;;5.83;3.33;;;;;;;16.00;46.76;100399.20;2080066;84;29365;-75
2022/05/17 05:08:05;;;;;;;11.18;3.00;;;;;;;16.07;46.80;100397.81;2108571;84;27788;-73
2022/05/17 05:11:10;;;;;;;9.03;2.95;;;;;;;16.10;46.87;100397.59;2080048;84;28650;-75
2022/05/17 05:14:16;;;;;;;8.83;3.55;;;;;;;16.12;46.66;100402.87;2056794;84;31097;-75
2022/05/17 05:17:22;;;;;;;5.53;2.50;;;;;;;16.14;46.69;100395.53;2079513;84;32971;-74
2022/05/17 05:20:30;;;;;;;4.90;2.58;;;;;;;16.18;46.73;100400.22;2108302;84;29383;-75
2022/05/17 05:23:56;;;;;;;6.55;2.87;;;;;;;16.15;46.66;100399.08;2107312;84;27705;-72
2022/05/17 05:27:13;;;;;;;5.42;2.25;;;;;;;16.13;46.63;100404.61;2104860;84;28690;-73
2022/05/17 05:30:42;;;;;;;9.48;3.02;;;;;;;16.18;46.75;100400.22;2104812;84;31137;-71
2022/05/17 05:34:02;;;;;;;11.15;3.08;;;;;;;16.21;46.72;100397.30;2102620;84;30509;-72
2022/05/17 05:37:18;;;;;;;7.90;3.00;;;;;;;16.25;46.73;100400.17;2103821;84;27680;-75
2022/05/17 05:40:42;;;;;;;7.40;3.15;;;;;;;16.29;46.63;100405.73;2106095;84;27779;-71
2022/05/17 05:44:05;;;;;;;7.72;3.50;;;;;;;16.37;46.65;100402.48;2101558;84;27638;-72
2022/05/17 05:47:30;;;;;;;10.70;3.50;;;;;;;16.47;46.63;100403.52;2078420;84;27792;-72
2022/05/17 05:50:35;;;;;;;6.90;2.98;;;;;;;16.68;46.64;100405.64;2108455;84;33039;-72
2022/05/17 05:53:37;;;;;;;4.78;2.52;;;;;;;16.83;46.47;100397.73;2106283;84;29338;-72
2022/05/17 05:56:40;;;;;;;5.87;2.83;;;;;;;17.08;46.25;100406.73;2105514;84;27934;-72
2022/05/17 05:59:43;;;;;;;6.28;2.65;;;;;;;17.27;46.04;100405.34;2076985;84;28768;-72
2022/05/17 06:02:50;;;;;;;6.78;3.08;;;;;;;17.67;45.40;100403.63;2102162;84;31017;-72
2022/05/17 06:05:54;;;;;;;8.80;2.75;;;;;;;17.67;45.40;100403.63;2101954;84;33134;-72
2022/05/17 06:08:58;;;;;;;10.30;3.15;;;;;;;17.94;45.16;100410.56;2102572;84;36819;-73
2022/05/17 06:12:00;;;;;;;7.53;3.17;;;;;;;18.16;44.80;100405.68;2102367;84;27794;-73
2022/05/17 06:15:05;;;;;;;7.05;3.05;;;;;;;18.47;44.49;100406.42;2102565;84;28660;-72
2022/05/17 06:18:10;;;;;;;9.95;3.47;;;;;;;18.74;44.09;100415.52;2103480;84;31027;-72
2022/05/17 06:21:12;;;;;;;7.05;3.75;;;;;;;19.05;44.18;100413.47;2103455;84;32978;-73
2022/05/17 06:24:16;;;;;;;12.30;3.30;;;;;;;19.44;43.88;100417.89;2103479;84;29327;-73
2022/05/17 06:27:19;;;;;;;5.80;2.45;;;;;;;19.78;43.17;100422.26;2103556;84;27736;-72
2022/05/17 06:30:22;;;;;;;11.53;2.90;;;;;;;19.97;42.47;100422.42;2103210;84;28768;-72
2022/05/17 06:33:24;;;;;;;8.60;3.00;;;;;;;20.08;41.96;100414.68;2079504;84;31026;-72
2022/05/17 06:36:28;;;;;;;4.58;2.98;;;;;;;20.24;42.14;100419.64;2103436;84;32946;-73
2022/05/17 06:39:30;;;;;;;12.47;2.65;;;;;;;20.56;41.59;100419.09;2103534;84;29325;-73
2022/05/17 06:42:33;;;;;;;8.65;3.00;;;;;;;20.98;40.95;100422.16;2103198;84;27946;-72
2022/05/17 06:45:36;;;;;;;10.55;3.47;;;;;;;21.22;40.29;100417.67;2103122;84;28663;-71
2022/05/17 06:48:39;;;;;;;10.82;3.37;;;;;;;21.25;40.26;100412.81;2103549;84;31036;-72
2022/05/17 06:51:42;;;;;;;7.42;3.08;;;;;;;21.49;40.19;100422.92;2103474;84;32997;-73
2022/05/17 06:54:44;;;;;;;8.85;3.65;;;;;;;21.81;39.81;100430.79;2103568;84;29299;-73
2022/05/17 06:57:48;;;;;;;6.17;2.98;;;;;;;21.93;38.99;100431.98;2103691;84;27554;-74
2022/05/17 07:00:50;;;;;;;6.45;2.87;;;;;;;21.95;38.91;100427.23;2103700;84;28645;-73
2022/05/17 07:03:53;;;;;;;7.75;3.12;;;;;;;21.98;38.24;100433.77;2103662;84;31074;-73
2022/05/17 07:06:57;;;;;;;6.05;2.98;;;;;;;21.82;38.32;100429.78;2103495;84;32972;-74
2022/05/17 07:13:19;;;;;;;7.45;3.27;;;;;;;21.87;37.97;100418.95;2102776;84;27808;-73
2022/05/17 07:16:23;;;;;;;9.93;3.37;;;;;;;21.80;38.06;100428.22;2103408;84;28657;-73
2022/05/17 07:19:25;;;;;;;6.28;2.87;;;;;;;21.73;38.04;100415.67;2103550;83;31698;-73
2022/05/17 07:22:28;;;;;;;10.08;3.72;;;;;;;21.59;38.24;100428.37;2103004;84;33085;-74
2022/05/17 07:25:32;;;;;;;10.53;3.25;;;;;;;21.57;38.35;100424.92;2103491;84;29318;-73
2022/05/17 07:28:42;;;;;;;6.50;3.30;;;;;;;21.55;38.24;100417.75;2103612;84;27907;-74
2022/05/17 07:31:45;;;;;;;5.67;3.02;;;;;;;21.49;38.19;100425.12;2102841;84;28817;-73
2022/05/17 07:34:48;;;;;;;6.28;3.20;;;;;;;21.39;38.18;100427.86;2103159;83;31055;-74
2022/05/17 07:37:51;;;;;;;6.30;3.47;;;;;;;21.30;38.15;100425.12;2103461;83;32956;-73
2022/05/17 07:40:54;;;;;;;10.48;3.98;;;;;;;21.18;38.53;100424.43;2103505;84;29324;-72
2022/05/17 07:43:56;;;;;;;10.15;3.50;;;;;;;21.22;38.62;100427.20;2103682;83;27584;-72
2022/05/17 07:46:58;;;;;;;7.03;3.37;;;;;;;21.28;38.54;100432.09;2079536;84;28635;-71
2022/05/17 07:50:03;;;;;;;6.03;2.80;;;;;;;21.30;38.48;100440.11;2103310;83;31051;-74
2022/05/17 07:53:11;;;;;;;8.48;3.83;;;;;;;21.25;38.33;100441.42;2103916;84;33004;-73
2022/05/17 07:56:14;;;;;;;9.23;3.40;;;;;;;21.33;38.60;100446.16;2103725;84;30313;-74
2022/05/17 07:59:17;;;;;;;8.75;3.50;;;;;;;21.37;38.60;100446.73;2103407;84;27712;-74
2022/05/17 08:02:20;;;;;;;8.08;3.12;;;;;;;21.51;38.79;100447.66;2103224;83;28699;-74
2022/05/17 08:05:25;;;;;;;7.72;3.33;;;;;;;21.57;38.10;100452.19;2103689;84;31085;-74
2022/05/17 08:08:28;;;;;;;9.10;3.08;;;;;;;21.55;38.32;100457.77;2103724;84;34004;-74
2022/05/17 08:11:31;;;;;;;8.83;4.08;;;;;;;21.64;38.38;100461.03;2103675;83;29333;-74
2022/05/17 08:14:36;;;;;;;12.00;3.30;;;;;;;21.71;38.19;100465.41;2103541;84;27782;-72
2022/05/17 08:17:38;;;;;;;13.90;3.75;;;;;;;21.66;38.01;100469.94;2103755;84;28654;-72
2022/05/17 08:20:40;;;;;;;7.50;3.55;;;;;;;21.60;38.23;100472.31;2103581;84;30842;-73
2022/05/17 08:23:43;;;;;;;9.08;3.62;;;;;;;21.57;38.24;100473.99;2103542;84;32966;-73
2022/05/17 08:30:15;;;;;;;14.38;4.25;;;;;;;21.65;38.15;100478.24;2103365;84;27798;-72
2022/05/17 08:33:23;;;;;;;10.45;4.35;;;;;;;21.72;38.16;100484.85;2103744;84;28666;-73
2022/05/17 08:36:25;;;;;;;9.65;3.60;;;;;;;21.82;37.96;100487.06;2103501;84;31039;-73
2022/05/17 08:39:29;;;;;;;7.40;3.62;;;;;;;21.98;37.93;100484.23;2103614;84;32969;-73
2022/05/17 08:42:45;;;;;;;10.38;4.30;;;;;;;22.16;37.89;100497.48;2103809;84;29343;-73
2022/05/17 08:46:14;;;;;;;9.68;4.28;;;;;;;22.18;37.53;100482.84;2103868;84;27611;-73
2022/05/17 08:49:36;;;;;;;9.78;4.00;;;;;;;22.28;37.50;100491.36;2079580;84;28659;-73
2022/05/17 08:52:41;;;;;;;5.65;3.25;;;;;;;22.46;37.68;100490.62;2101403;84;31039;-72
2022/05/17 08:55:45;;;;;;;12.50;4.20;;;;;;;22.56;37.54;100490.59;2102930;84;33607;-73
2022/05/17 08:58:50;;;;;;;14.28;5.22;;;;;;;22.75;37.78;100497.82;2103588;84;29333;-73
2022/05/17 09:01:58;;;;;;;17.35;5.65;;;;;;;22.83;37.46;100502.04;2103348;84;27637;-73
2022/05/17 09:05:28;;;;;;;10.23;4.70;;;;;;;22.91;37.56;100502.64;2103620;84;28735;-73
2022/05/17 09:08:45;;;;;;;11.65;3.50;;;;;;;22.90;37.43;100500.92;2103443;83;31046;-73
2022/05/17 09:11:58;;;;;;;8.05;3.40;;;;;;;22.87;37.29;100509.42;2078822;84;33123;-73
2022/05/17 09:15:01;;;;;;;7.20;3.10;;;;;;;22.77;36.69;100506.73;2103503;84;29382;-73
2022/05/17 09:18:10;;;;;;;13.83;4.00;;;;;;;22.57;37.02;100499.98;2079388;84;27736;-73
2022/05/17 09:21:38;;;;;;;9.40;3.75;;;;;;;22.50;37.23;100501.61;2103671;84;28654;-73
2022/05/17 09:24:46;;;;;;;6.47;3.35;;;;;;;22.38;37.17;100504.10;2103496;84;31031;-73
2022/05/17 09:27:52;;;;;;;8.43;4.00;;;;;;;22.28;37.31;100497.30;2103622;84;33008;-71
2022/05/17 09:31:24;;;;;;;8.45;4.47;;;;;;;22.27;37.42;100497.83;2103710;84;29296;-72
2022/05/17 09:34:45;;;;;;;6.75;3.85;;;;;;;22.18;37.36;100509.61;2097071;84;28052;-74
2022/05/17 09:37:54;;;;;;;6.50;3.08;;;;;;;22.06;37.75;100507.57;2103693;84;28649;-73
2022/05/17 09:40:57;;;;;;;10.23;3.37;;;;;;;21.89;37.53;100510.52;2102982;84;31672;-74
2022/05/17 09:44:10;;;;;;;6.40;3.22;;;;;;;21.68;37.88;100512.89;2103355;84;32990;-73
2022/05/17 09:47:18;;;;;;;10.70;3.45;;;;;;;21.54;38.10;100514.65;2103975;84;29319;-72
2022/05/17 09:53:47;;;;;;;9.20;3.35;;;;;;;21.00;38.32;100504.59;2103612;84;28706;-72
2022/05/17 09:56:50;;;;;;;6.50;2.92;;;;;;;20.80;38.75;100507.25;2103516;84;31089;-72
2022/05/17 10:00:08;;;;;;;5.80;2.80;;;;;;;20.68;38.94;100503.77;2103684;84;32989;-72
2022/05/17 10:03:19;;;;;;;16.65;2.90;;;;;;;20.62;39.22;100509.74;2099887;83;29511;-71
2022/05/17 10:06:41;;;;;;;8.25;3.47;;;;;;;20.55;39.44;100508.55;2093962;84;27890;-72
2022/05/17 10:09:45;;;;;;;10.45;3.85;;;;;;;20.52;39.66;100508.33;2077985;84;28690;-72
2022/05/17 10:12:51;;;;;;;7.00;4.05;;;;;;;20.57;39.97;100514.72;2105966;84;31030;-72
2022/05/17 10:16:02;;;;;;;12.70;4.10;;;;;;;20.61;40.09;100515.67;2076452;84;32944;-73
2022/05/17 10:19:19;;;;;;;19.35;3.98;;;;;;;20.68;40.32;100524.66;2104537;84;29364;-71
2022/05/17 10:22:33;;;;;;;16.90;4.85;;;;;;;20.72;40.80;100526.97;2106163;84;27615;-71
2022/05/17 10:25:47;;;;;;;11.15;3.90;;;;;;;20.79;41.51;100524.59;2105484;84;28732;-71
2022/05/17 10:29:01;;;;;;;7.45;3.90;;;;;;;20.85;42.02;100521.33;2105943;84;31195;-71
2022/05/17 10:32:24;;;;;;;8.10;3.60;;;;;;;20.89;42.57;100517.82;2106744;84;34840;-71
2022/05/17 10:35:46;;;;;;;7.50;3.67;;;;;;;20.94;42.47;100525.93;2105996;84;29327;-72
2022/05/17 10:39:30;;;;;;;9.25;3.58;;;;;;;20.97;43.22;100526.66;2074851;84;28088;-73
2022/05/17 10:42:35;;;;;;;10.08;4.50;;;;;;;20.97;43.71;100532.98;2040034;86;28663;-72
2022/05/17 10:45:40;;;;;;;13.70;4.08;;;;;;;20.99;43.70;100539.64;2040110;87;31105;-71
2022/05/17 10:49:19;;;;;;;11.08;4.45;;;;;;;20.97;43.87;100543.88;2040029;87;33080;-72
2022/05/17 10:52:48;;;;;;;7.28;4.10;;;;;;;20.93;44.11;100539.70;2039496;87;29178;-72
2022/05/17 10:56:35;;;;;;;9.08;3.98;;;;;;;20.93;44.23;100543.78;2039749;87;27934;-71
2022/05/17 10:59:58;;;;;;;9.08;4.37;;;;;;;20.95;44.46;100549.96;2039394;87;28722;-72
2022/05/17 11:03:20;;;;;;;10.55;4.10;;;;;;;20.99;44.80;100560.95;2041879;86;31076;-73
2022/05/17 11:06:40;;;;;;;9.40;4.00;;;;;;;21.07;45.18;100562.98;1989091;89;33677;-73
2022/05/17 11:10:13;;;;;;;15.98;4.80;;;;;;;21.19;45.59;100559.14;1927907;92;29362;-73
2022/05/17 11:13:33;;;;;;;9.60;3.58;;;;;;;21.31;45.79;100565.34;1939847;91;27943;-73
2022/05/17 11:16:56;;;;;;;7.97;3.67;;;;;;;21.40;45.58;100565.86;1971727;90;28731;-73
2022/05/17 11:20:31;;;;;;;8.65;2.72;;;;;;;21.49;44.68;100565.52;1976945;89;31067;-73
2022/05/17 11:23:56;;;;;;;9.33;3.10;;;;;;;21.60;44.37;100573.19;1979805;89;33033;-72
2022/05/17 11:27:33;;;;;;;9.45;3.17;;;;;;;21.66;43.65;100572.19;2012797;88;29335;-71
2022/05/17 11:30:52;;;;;;;7.10;2.42;;;;;;;21.64;43.35;100576.91;2037953;87;27786;-72
2022/05/17 11:34:28;;;;;;;6.47;2.47;;;;;;;21.57;43.43;100586.62;2012718;88;28648;-72
2022/05/17 11:37:38;;;;;;;10.10;3.02;;;;;;;21.42;42.72;100592.11;1979029;89;31264;-71
2022/05/17 11:40:53;;;;;;;9.55;2.58;;;;;;;21.22;41.83;100605.19;2012756;88;32961;-72
2022/05/17 11:44:13;;;;;;;6.75;2.72;;;;;;;21.02;42.29;100611.04;2060555;85;29169;-72
2022/05/17 11:47:35;;;;;;;3.42;2.72;;;;;;;20.86;43.55;100600.67;2112594;84;27646;-72
2022/05/17 11:50:43;;;;;;;4.97;2.95;;;;;;;20.70;43.75;100607.91;2110341;84;28686;-71
2022/05/17 11:53:49;;;;;;;5.72;2.92;;;;;;;20.44;43.91;100608.83;2112464;84;31024;-72
2022/05/17 11:56:51;;;;;;;5.42;2.87;;;;;;;20.19;44.20;100605.52;2112076;84;33187;-72
2022/05/17 12:00:04;;;;;;;5.72;2.85;;;;;;;20.03;44.63;100609.55;2112149;84;29446;-71
2022/05/17 12:03:21;;;;;;;9.80;3.20;;;;;;;19.92;44.85;100616.87;2112547;83;28002;-72
2022/05/17 12:06:41;;;;;;;11.43;3.67;;;;;;;19.82;45.13;100613.55;2112739;84;28702;-72
2022/05/17 12:09:57;;;;;;;8.28;3.52;;;;;;;19.82;45.99;100616.27;2112609;84;31070;-73
2022/05/17 12:13:07;;;;;;;12.23;3.80;;;;;;;19.85;46.39;100619.22;2110746;83;32992;-72
2022/05/17 12:16:14;;;;;;;7.62;3.87;;;;;;;19.99;48.17;100605.86;2112890;84;29329;-74
2022/05/17 12:19:45;;;;;;;13.98;5.08;;;;;;;20.17;49.08;100599.34;2113155;84;27763;-72
2022/05/17 12:23:08;;;;;;;8.18;3.90;;;;;;;20.37;49.69;100588.60;2113132;84;28720;-72
2022/05/17 12:26:28;;;;;;;7.42;3.60;;;;;;;20.56;49.64;100593.30;2112705;84;31110;-73
2022/05/17 12:32:53;;;;;;;11.60;4.00;;;;;;;20.59;48.63;100586.23;2091697;84;29435;-72
2022/05/17 12:36:18;;;;;;;6.25;3.50;;;;;;;20.77;49.16;100608.27;2113007;84;27599;-71
2022/05/17 12:43:06;;;;;;;10.15;3.62;;;;;;;21.04;48.01;100609.56;2111662;84;31055;-72
2022/05/17 12:46:14;;;;;;;12.28;4.50;;;;;;;21.27;48.00;100605.25;2111311;84;33030;-73
2022/05/17 12:49:21;;;;;;;8.18;3.60;;;;;;;21.48;46.88;100608.77;2086514;84;29127;-73
2022/05/17 12:52:37;;;;;;;7.15;3.52;;;;;;;21.49;45.60;100605.04;2065111;84;28002;-74
2022/05/17 12:55:39;;;;;;;6.08;3.60;;;;;;;21.64;45.66;100605.55;2111483;84;28630;-74
2022/05/17 12:58:59;;;;;;;8.03;3.65;;;;;;;21.75;44.96;100605.05;2111560;84;31060;-73
2022/05/17 13:02:03;;;;;;;10.08;3.42;;;;;;;21.93;44.98;100607.92;2111494;84;32951;-74
2022/05/17 13:05:35;;;;;;;4.67;3.65;;;;;;;21.97;43.34;100603.91;2111606;84;29388;-74
2022/05/17 13:08:40;;;;;;;5.45;3.20;;;;;;;21.95;43.39;100601.82;2111780;82;27830;-73
2022/05/17 13:11:42;;;;;;;7.67;3.17;;;;;;;22.00;42.88;100603.63;2111930;84;28655;-73
2022/05/17 13:14:48;;;;;;;6.12;2.67;;;;;;;22.05;42.97;100608.16;2111861;84;31040;-71
2022/05/17 13:17:51;;;;;;;;;;;;;;;22.10;42.25;100609.93;2114003;83;33150;-71
2022/05/17 13:20:53;;;;;;;7.60;3.00;;;;;;;22.09;41.68;100608.73;2111361;83;29404;-72
2022/05/17 13:24:00;;;;;;;10.08;3.52;;;;;;;22.08;41.72;100611.97;2112450;84;27621;-71
2022/05/17 13:27:33;;;;;;;8.90;2.60;;;;;;;22.15;41.49;100614.98;2112251;84;28698;-71
2022/05/17 13:30:47;;;;;;;7.20;2.62;;;;;;;22.16;40.77;100615.34;2112352;84;31090;-66
2022/05/17 13:34:01;;;;;;;8.60;2.77;;;;;;;22.20;40.94;100612.66;2121006;83;33088;-66
2022/05/17 13:37:15;;;;;;;6.00;2.80;;;;;;;22.36;40.30;100616.18;2098045;83;29328;-66
2022/05/17 13:40:45;;;;;;;6.92;3.00;;;;;;;22.45;40.27;100613.95;2118347;83;27931;-65
2022/05/17 13:43:58;;;;;;;6.40;2.52;;;;;;;22.57;38.77;100622.86;2118011;83;29978;-63
2022/05/17 13:47:12;;;;;;;4.25;2.98;;;;;;;22.54;38.75;100622.30;2117931;83;31455;-64
2022/05/17 13:50:24;;;;;;;7.42;3.35;;;;;;;22.52;38.87;100619.69;2117852;83;29961;-64
2022/05/17 13:53:33;;;;;;;5.25;3.60;;;;;;;22.59;38.74;100618.59;2116461;83;29498;-65
2022/05/17 13:56:45;;;;;;;3.67;2.33;;;;;;;22.76;38.64;100623.82;2119311;83;28033;-65
2022/05/17 14:00:06;;;;;;;6.12;3.05;;;;;;;22.88;38.13;100631.34;2094194;83;28704;-65
2022/05/17 14:03:23;;;;;;;11.93;2.83;;;;;;;22.94;38.36;100630.73;2116782;83;31624;-65
2022/05/17 14:06:26;;;;;;;7.35;3.02;;;;;;;23.04;38.47;100631.58;2101869;84;33022;-65
2022/05/17 14:13:18;;;;;;;5.42;3.08;;;;;;;23.13;37.45;100633.03;2100396;84;27983;-66
2022/05/17 14:16:33;;;;;;;8.15;3.30;;;;;;;23.07;37.70;100630.41;2100025;84;27951;-64
2022/05/17 14:19:40;;;;;;;14.00;3.58;;;;;;;23.08;37.53;100628.02;2100117;84;31496;-65
2022/05/17 14:22:45;;;;;;;8.93;4.10;;;;;;;23.11;37.27;100633.69;2100582;84;33112;-64
2022/05/17 14:25:49;;;;;;;8.20;3.47;;;;;;;23.09;37.08;100627.02;2100313;84;29374;-64
2022/05/17 14:28:56;;;;;;;7.50;3.70;;;;;;;23.10;37.20;100634.70;2100411;84;27907;-64
2022/05/17 14:32:05;;;;;;;6.55;3.35;;;;;;;23.06;36.69;100630.92;2100785;84;28650;-65
2022/05/17 14:35:18;;;;;;;8.90;4.05;;;;;;;23.01;36.05;100634.60;2100597;84;30998;-66
2022/05/17 14:38:24;;;;;;;9.23;4.17;;;;;;;22.89;36.49;100638.02;2076065;84;33129;-65
2022/05/17 14:41:30;;;;;;;6.58;3.33;;;;;;;22.83;36.35;100637.26;2076302;84;29320;-62
2022/05/17 14:44:35;;;;;;;10.00;3.45;;;;;;;22.74;36.19;100632.66;2100399;84;27888;-62
2022/05/17 14:47:40;;;;;;;10.82;3.02;;;;;;;22.65;36.82;100630.31;2100673;84;28682;-64
2022/05/17 14:50:44;;;;;;;6.05;2.90;;;;;;;22.63;36.76;100638.30;2101517;84;31022;-64
2022/05/17 14:53:49;;;;;;;5.22;2.85;;;;;;;22.52;36.68;100637.44;2100621;84;32968;-65
2022/05/17 14:56:55;;;;;;;7.22;3.00;;;;;;;22.46;36.78;100641.63;2100717;84;29353;-66
2022/05/17 14:59:59;;;;;;;8.15;3.77;;;;;;;22.43;36.79;100640.54;2100544;84;27808;-67